Nearby METAR Reports

 

KPTW - Pottstown, Pennsylvania, USA
Distance from station: NE 6mi, 10km
Updated: 07/18/2018 5:54am
Mostly Cloudy
Mostly Cloudy
 Wind from NNW
Wind: NNW 3 mph , 6 km/h
Temperature: 64°F , 18°C
Dew Point: 57°F , 14°C
Humidity: 78%
Barometer: 29.92 inHg , 1013.2 hPa
Clouds: Mostly Cloudy
Visibility: 10 miles , 16 km
Cloud details: Mostly Cloudy 7000 ft
2018/07/18 09:54 KPTW 180954Z AUTO 33003KT 10SM BKN070 18/14 A2992 RMK AO2 SLP126 T01830144
KMQS - Coatesville, Pennsylvania, USA
Distance from station: SW 18mi, 29km
Updated: 07/18/2018 5:55am
Clear
Clear
 Wind from NNW
Wind: NNW 7 mph , 11 km/h
Temperature: 68°F , 20°C
Dew Point: 59°F , 15°C
Humidity: 73%
Barometer: 29.92 inHg , 1013.2 hPa
Clouds: Clear
Visibility: 10 miles , 16 km
2018/07/18 09:55 KMQS 180955Z AUTO 33006KT 10SM CLR 20/15 A2992 RMK AO2
 
KLOM - Philly Wings F, Pennsylvania, USA
Distance from station: E 19mi, 31km
Updated: 07/18/2018 5:55am
Partly Cloudy
Partly Cloudy
 Wind from calm
Wind: Calm
Temperature: 63°F , 17°C
Dew Point: 63°F , 17°C
Humidity: 100%
Barometer: 29.90 inHg , 1012.5 hPa
Clouds: Partly Cloudy
Visibility: 10 miles , 16 km
Cloud details: Partly Cloudy 7500 ft
2018/07/18 09:55 KLOM 180955Z AUTO 00000KT 10SM SCT075 17/17 A2990 RMK AO1
KRDG - Reading, Pennsylvania, USA
Distance from station: NW 22mi, 36km
Updated: 07/18/2018 5:54am
Clear
Clear
 Wind from N
Wind: N 3 mph , 6 km/h
Temperature: 66°F , 19°C
Dew Point: 66°F , 19°C
Humidity: 100%
Barometer: 29.91 inHg , 1012.9 hPa
Clouds: Clear
Visibility: 10 miles , 16 km
2018/07/18 09:54 KRDG 180954Z 36003KT 10SM CLR 19/19 A2991 RMK AO2 SLP130 T01940189
 
KUKT - Quakertown Arp, Pennsylvania, USA
Distance from station: NE 22mi, 36km
Updated: 07/18/2018 6:15am
Clear
Clear
 Wind from NNW
Wind: NNW 7 mph , 11 km/h
Temperature: 66°F , 19°C
Dew Point: 59°F , 15°C
Humidity: 78%
Barometer: 29.91 inHg , 1012.9 hPa
Clouds: Clear
Visibility: 10 miles , 16 km
2018/07/18 10:15 KUKT 181015Z AUTO 33006KT 10SM CLR 19/15 A2991 RMK A01
KXLL - Allentown Queen, Pennsylvania, USA
Distance from station: NNE 28mi, 46km
Updated: 07/18/2018 5:55am
Partly Cloudy
Partly Cloudy
 Wind from calm
Wind: Calm
Temperature: 64°F , 18°C
Dew Point: 59°F , 15°C
Humidity: 83%
Barometer: 29.92 inHg , 1013.2 hPa
Clouds: Partly Cloudy
Visibility: 10 miles , 16 km
Cloud details: Partly Cloudy 7500 ft
2018/07/18 09:55 KXLL 180955Z AUTO 00000KT 10SM SCT075 18/15 A2992 RMK AO2
 
KDYL - Doylestown, Pennsylvania, USA
Distance from station: ENE 29mi, 47km
Updated: 07/18/2018 5:54am
Clear
Clear
 Wind from N
Wind: N 5 mph , 7 km/h
Temperature: 64°F , 18°C
Dew Point: 61°F , 16°C
Humidity: 88%
Barometer: 29.89 inHg , 1012.2 hPa
Clouds: Clear
Visibility: 10 miles , 16 km
2018/07/18 09:54 KDYL 180954Z AUTO 36004KT 10SM CLR 18/16 A2989 RMK AO2 SLP116 T01780161
KPHL - Philadelphia, Pennsylvania, USA
Distance from station: SE 30mi, 48km
Updated: 07/18/2018 5:54am
Mostly Cloudy
Mostly Cloudy
 Wind from N
Wind: N 9 mph , 15 km/h
Temperature: 70°F , 21°C
Dew Point: 61°F , 16°C
Humidity: 73%
Barometer: 29.89 inHg , 1012.2 hPa
Clouds: Mostly Cloudy
Visibility: 10 miles , 16 km
Cloud details: Partly Cloudy 8000 ft
Partly Cloudy 16000 ft
Mostly Cloudy 28000 ft
2018/07/18 09:54 KPHL 180954Z 35008KT 10SM SCT080 SCT160 BKN280 21/16 A2989 RMK AO2 SLP119 T02110161 $
 
KPNE - Philadelphia/Ne, Pennsylvania, USA
Distance from station: E 33mi, 53km
Updated: 07/18/2018 5:54am
Few Clouds
Few Clouds
 Wind from NNW
Wind: NNW 3 mph , 6 km/h
Temperature: 70°F , 21°C
Dew Point: 64°F , 18°C
Humidity: 83%
Barometer: 29.89 inHg , 1012.2 hPa
Clouds: Few Clouds
Visibility: 10 miles , 16 km
Cloud details: Few Clouds 8000 ft
2018/07/18 09:54 KPNE 180954Z 34003KT 10SM FEW080 21/18 A2989 RMK AO2 SLP120 T02110178
KABE - Allentown, Pennsylvania, USA
Distance from station: NNE 34mi, 55km
Updated: 07/18/2018 5:51am
Mostly Cloudy
Mostly Cloudy
 Wind from NW
Wind: NW 7 mph , 11 km/h
Temperature: 66°F , 19°C
Dew Point: 57°F , 14°C
Humidity: 73%
Barometer: 29.90 inHg , 1012.5 hPa
Clouds: Mostly Cloudy
Visibility: 10 miles , 16 km
Cloud details: Mostly Cloudy 7500 ft
2018/07/18 09:51 KABE 180951Z 31006KT 10SM BKN075 19/14 A2990 RMK AO2 SLP124 T01890139 $
 
KILG - Wilmington, Delaware, USA
Distance from station: S 35mi, 56km
Updated: 07/18/2018 5:51am
Partly Cloudy
Partly Cloudy
 Wind from N
Wind: N 8 mph , 13 km/h
Temperature: 70°F , 21°C
Dew Point: 64°F , 18°C
Humidity: 83%
Barometer: 29.89 inHg , 1012.2 hPa
Clouds: Partly Cloudy
Visibility: 10 miles , 16 km
Cloud details: Partly Cloudy 7000 ft
2018/07/18 09:51 KILG 180951Z AUTO 35007KT 10SM SCT070 21/18 A2989 RMK AO2 SLP120 T02110183 $
KLNS - Lancaster, Pennsylvania, USA
Distance from station: W 36mi, 57km
Updated: 07/18/2018 5:53am
Partly Cloudy
Partly Cloudy
 Wind from NW
Wind: NW 5 mph , 7 km/h
Temperature: 66°F , 19°C
Dew Point: 61°F , 16°C
Humidity: 83%
Barometer: 29.92 inHg , 1013.2 hPa
Clouds: Partly Cloudy
Visibility: 10 miles , 16 km
Cloud details: Partly Cloudy 7500 ft
2018/07/18 09:53 KLNS 180953Z 32004KT 10SM SCT075 19/16 A2992 RMK AO2 SLP127 T01940161
 
KTTN - Trenton, New Jersey, USA
Distance from station: E 44mi, 70km
Updated: 07/18/2018 5:53am
Clear
Clear
 Wind from NW
Wind: NW 5 mph , 7 km/h
Temperature: 66°F , 19°C
Dew Point: 61°F , 16°C
Humidity: 83%
Barometer: 29.87 inHg , 1011.5 hPa
Clouds: Clear
Visibility: 10 miles , 16 km
2018/07/18 09:53 KTTN 180953Z 31004KT 10SM CLR 19/16 A2987 RMK AO2 SLP109 T01890156
KVAY - Mount Holly, New Jersey, USA
Distance from station: ESE 45mi, 73km
Updated: 07/18/2018 5:54am

 Wind from calm
Wind: Calm
Temperature: 68°F , 20°C
Dew Point: 66°F , 19°C
Humidity: 94%
Barometer: 29.87 inHg , 1011.5 hPa
Visibility: 10 miles , 16 km
2018/07/18 09:54 KVAY 180954Z AUTO 00000KT 10SM 20/19 A2987 RMK AO2 SLP114 T02000189 $
 
KMUI - Muir Aaf/Indiant, Pennsylvania, USA
Distance from station: WNW 52mi, 84km
Updated: 07/18/2018 5:56am
Clear
Clear
 Wind from N
Wind: N 5 mph , 7 km/h
Temperature: 66°F , 19°C
Dew Point: 57°F , 14°C
Humidity: 73%
Barometer: 29.92 inHg , 1013.2 hPa
Clouds: Clear
Visibility: 10 miles , 16 km
2018/07/18 09:56 KMUI 180956Z AUTO 35004KT 10SM CLR 19/14 A2992 RMK AO2 SLP132 T01910137 $
KAPG - Aberdeen/Phillip, Maryland, USA
Distance from station: SSW 56mi, 91km
Updated: 07/18/2018 5:58am
Mostly Cloudy
Mostly Cloudy
 Wind from calm
Wind: Calm
Temperature: 70°F , 21°C
Dew Point: 63°F , 17°C
Humidity: 78%
Barometer: 29.89 inHg , 1012.2 hPa
Clouds: Mostly Cloudy
Visibility: 10 miles , 16 km
Cloud details: Mostly Cloudy 7000 ft
2018/07/18 09:58 KAPG 180958Z 00000KT 10SM BKN070 21/17 A2989 RMK AO2A SLP125 P0001 T02070165
 
KWRI - Wrightst/Mcguire, New Jersey, USA
Distance from station: E 56mi, 91km
Updated: 07/18/2018 5:56am
Few Clouds
Few Clouds
 Wind from NW
Wind: NW 6 mph , 9 km/h
Temperature: 66°F , 19°C
Dew Point: 63°F , 17°C
Humidity: 88%
Barometer: 29.84 inHg , 1010.5 hPa
Clouds: Few Clouds
Visibility: 10 miles , 16 km
Cloud details: Few Clouds 7500 ft
2018/07/18 09:56 KWRI 180956Z AUTO 32005KT 10SM FEW075 19/17 A2984 RMK AO2 SLP104 T01890172 TSNO $
KSMQ - Somerville, New Jersey, USA
Distance from station: ENE 59mi, 96km
Updated: 07/17/2018 3:42pm
NOT Current
Nearby thunderstorm, Light rain, Mist, Partly cloudy
Nearby thunderstorm, Light rain, Mist, Partly cloudy
 Wind from calm
Wind: Calm
Temperature: 72°F , 22°C
Dew Point: 72°F , 22°C
Humidity: 100%
Barometer: 29.81 inHg , 1009.5 hPa
Summary: Nearby thunderstorm, Light rain, Mist
Clouds: Partly Cloudy
Visibility: 6 miles , 10 km
Cloud details: Partly Cloudy 12000 ft
2018/07/17 19:42 KSMQ 171942Z AUTO 00000KT 6SM VCTS -RA BR SCT120 22/22 A2981 RMK AO2 LTG DSNT ALQDS TSE10B21E36 P0015 T02170217
 
KMDT - Middletown, Pennsylvania, USA
Distance from station: W 60mi, 97km
Updated: 07/18/2018 5:56am
Clear
Clear
 Wind from NW
Wind: NW 7 mph , 11 km/h
Temperature: 68°F , 20°C
Dew Point: 57°F , 14°C
Humidity: 69%
Barometer: 29.92 inHg , 1013.2 hPa
Clouds: Clear
Visibility: 10 miles , 16 km
2018/07/18 09:56 KMDT 180956Z 32006KT 10SM CLR 20/14 A2992 RMK AO2 SLP130 T02000144
KMIV - Millville, New Jersey, USA
Distance from station: SSE 63mi, 101km
Updated: 07/18/2018 5:54am
Clear
Clear
 Wind from NNW
Wind: NNW 6 mph , 9 km/h
Barometer: 29.87 inHg , 1011.5 hPa
Clouds: Clear
Visibility: 10 miles , 16 km
2018/07/18 09:54 KMIV 180954Z AUTO 34005KT 10SM CLR A2987 RMK AO2 SLPNO $